Terminal Aerodrome Forecast
Issued by NWS

Home | Current Version | Previous Version | Text Only | Print | Product List | Glossary On
Versions: 1 2 3 4 5 6 7 8 9 10 11 12 13 14 15 16 17 18 19
364
FTUS41 KCLE 192051 AAA
TAFFDY
TAF AMD
KFDY 192051Z 1921/2018 21015G25KT 6SM -SHRA OVC050
     FM192300 21015G25KT P6SM OVC070
     FM200900 20020G32KT P6SM OVC100=

USA.gov is the U.S. government's official web portal to all federal, state and local government web resources and services.